sensor_id;sensor_type;location;lat;lon;timestamp;pressure;altitude;pressure_sealevel;temperature;humidity
9187;BME280;7273;48.902;9.410;2022-08-27T02:48:03;97734.00;;;19.70;71.65
9187;BME280;7273;48.902;9.410;2022-08-27T02:50:29;97738.56;;;19.66;71.68
9187;BME280;7273;48.902;9.410;2022-08-27T02:52:55;97736.03;;;19.61;71.91
9187;BME280;7273;48.902;9.410;2022-08-27T02:55:21;97742.47;;;19.65;71.97
9187;BME280;7273;48.902;9.410;2022-08-27T02:57:47;97750.81;;;19.68;72.02
9187;BME280;7273;48.902;9.410;2022-08-27T03:00:14;97748.97;;;19.72;72.00
9187;BME280;7273;48.902;9.410;2022-08-27T03:02:42;97752.41;;;19.69;72.24
9187;BME280;7273;48.902;9.410;2022-08-27T03:05:07;97750.22;;;19.75;72.01
9187;BME280;7273;48.902;9.410;2022-08-27T03:07:33;97748.31;;;19.75;71.96
9187;BME280;7273;48.902;9.410;2022-08-27T03:09:59;97753.44;;;19.77;71.98
9187;BME280;7273;48.902;9.410;2022-08-27T03:12:24;97752.63;;;19.76;72.17
9187;BME280;7273;48.902;9.410;2022-08-27T03:14:50;97751.94;;;19.79;72.25
9187;BME280;7273;48.902;9.410;2022-08-27T03:17:16;97757.31;;;19.76;72.20
9187;BME280;7273;48.902;9.410;2022-08-27T03:19:59;97748.63;;;19.74;72.71
9187;BME280;7273;48.902;9.410;2022-08-27T03:22:26;97751.81;;;19.76;72.45
9187;BME280;7273;48.902;9.410;2022-08-27T03:24:51;97750.34;;;19.78;72.47
9187;BME280;7273;48.902;9.410;2022-08-27T03:27:19;97754.22;;;19.77;72.43
9187;BME280;7273;48.902;9.410;2022-08-27T03:29:45;97750.34;;;19.78;72.54
9187;BME280;7273;48.902;9.410;2022-08-27T03:32:10;97755.84;;;19.78;72.57
9187;BME280;7273;48.902;9.410;2022-08-27T03:34:35;97757.78;;;19.78;72.69
9187;BME280;7273;48.902;9.410;2022-08-27T03:37:01;97750.69;;;19.77;72.74
9187;BME280;7273;48.902;9.410;2022-08-27T03:39:26;97749.09;;;19.76;72.85
9187;BME280;7273;48.902;9.410;2022-08-27T03:41:52;97750.34;;;19.78;72.95
9187;BME280;7273;48.902;9.410;2022-08-27T03:44:18;97741.66;;;19.76;73.03
9187;BME280;7273;48.902;9.410;2022-08-27T03:46:44;97747.03;;;19.73;73.22
9187;BME280;7273;48.902;9.410;2022-08-27T03:49:09;97738.78;;;19.73;73.05
9187;BME280;7273;48.902;9.410;2022-08-27T03:51:35;97741.19;;;19.74;72.92
9187;BME280;7273;48.902;9.410;2022-08-27T03:54:01;97741.53;;;19.73;73.19
9187;BME280;7273;48.902;9.410;2022-08-27T03:56:26;97736.06;;;19.73;73.35
9187;BME280;7273;48.902;9.410;2022-08-27T03:58:52;97730.91;;;19.71;73.37
9187;BME280;7273;48.902;9.410;2022-08-27T04:01:17;97739.13;;;19.71;73.20
9187;BME280;7273;48.902;9.410;2022-08-27T04:03:43;97734.47;;;19.72;73.49
9187;BME280;7273;48.902;9.410;2022-08-27T04:06:08;97732.50;;;19.72;73.35
9187;BME280;7273;48.902;9.410;2022-08-27T04:08:34;97737.56;;;19.70;73.65
9187;BME280;7273;48.902;9.410;2022-08-27T04:11:04;97737.44;;;19.67;74.02
9187;BME280;7273;48.902;9.410;2022-08-27T04:13:30;97732.63;;;19.64;73.82
9187;BME280;7273;48.902;9.410;2022-08-27T04:15:55;97730.56;;;19.61;73.97
9187;BME280;7273;48.902;9.410;2022-08-27T04:18:21;97733.06;;;19.66;73.51
9187;BME280;7273;48.902;9.410;2022-08-27T04:20:48;97732.97;;;19.62;73.64
9187;BME280;7273;48.902;9.410;2022-08-27T04:23:14;97737.31;;;19.63;73.35
9187;BME280;7273;48.902;9.410;2022-08-27T04:25:42;97738.00;;;19.60;73.66
9187;BME280;7273;48.902;9.410;2022-08-27T04:28:08;97737.19;;;19.60;73.61
9187;BME280;7273;48.902;9.410;2022-08-27T04:30:41;97737.41;;;19.55;73.85
9187;BME280;7273;48.902;9.410;2022-08-27T04:33:08;97739.47;;;19.58;73.56
9187;BME280;7273;48.902;9.410;2022-08-27T04:35:34;97741.28;;;19.42;75.05
9187;BME280;7273;48.902;9.410;2022-08-27T04:37:59;97743.91;;;19.38;74.64
9187;BME280;7273;48.902;9.410;2022-08-27T04:40:25;97748.38;;;19.43;73.91
9187;BME280;7273;48.902;9.410;2022-08-27T04:43:10;97738.78;;;19.37;74.31
9187;BME280;7273;48.902;9.410;2022-08-27T04:45:47;97744.94;;;19.34;74.48
9187;BME280;7273;48.902;9.410;2022-08-27T04:48:15;97754.97;;;19.30;74.39
9187;BME280;7273;48.902;9.410;2022-08-27T04:50:41;97739.47;;;19.34;79.06
9187;BME280;7273;48.902;9.410;2022-08-27T04:53:07;97746.09;;;19.33;74.62
9187;BME280;7273;48.902;9.410;2022-08-27T04:55:33;97752.03;;;19.35;73.98
9187;BME280;7273;48.902;9.410;2022-08-27T04:57:58;97749.75;;;19.37;74.01
9187;BME280;7273;48.902;9.410;2022-08-27T05:00:24;97751.38;;;19.38;73.80
9187;BME280;7273;48.902;9.410;2022-08-27T05:02:49;97756.03;;;19.37;74.01
9187;BME280;7273;48.902;9.410;2022-08-27T05:05:15;97756.50;;;19.39;73.92
9187;BME280;7273;48.902;9.410;2022-08-27T05:07:40;97752.25;;;19.42;73.83
9187;BME280;7273;48.902;9.410;2022-08-27T05:10:06;97752.38;;;19.45;73.83
9187;BME280;7273;48.902;9.410;2022-08-27T05:12:31;97748.84;;;19.45;73.78
9187;BME280;7273;48.902;9.410;2022-08-27T05:14:57;97747.38;;;19.47;73.85
9187;BME280;7273;48.902;9.410;2022-08-27T05:17:22;97749.09;;;19.52;73.88
9187;BME280;7273;48.902;9.410;2022-08-27T05:19:48;97745.53;;;19.51;73.80
9187;BME280;7273;48.902;9.410;2022-08-27T05:22:13;97747.59;;;19.54;73.99
9187;BME280;7273;48.902;9.410;2022-08-27T05:24:39;97747.28;;;19.56;73.86
9187;BME280;7273;48.902;9.410;2022-08-27T05:27:04;97741.44;;;19.57;73.92
9187;BME280;7273;48.902;9.410;2022-08-27T05:29:30;97743.38;;;19.57;73.89
9187;BME280;7273;48.902;9.410;2022-08-27T05:31:55;97742.56;;;19.56;73.88
9187;BME280;7273;48.902;9.410;2022-08-27T05:34:21;97747.28;;;19.56;74.06
9187;BME280;7273;48.902;9.410;2022-08-27T05:36:46;97735.59;;;19.59;73.97
9187;BME280;7273;48.902;9.410;2022-08-27T05:39:12;97739.94;;;19.60;74.02
9187;BME280;7273;48.902;9.410;2022-08-27T05:41:37;97743.38;;;19.57;74.19
9187;BME280;7273;48.902;9.410;2022-08-27T05:44:06;97742.56;;;19.56;74.15
9187;BME280;7273;48.902;9.410;2022-08-27T05:46:34;97751.59;;;19.57;74.12
9187;BME280;7273;48.902;9.410;2022-08-27T05:49:00;97755.81;;;19.54;74.21
9187;BME280;7273;48.902;9.410;2022-08-27T05:51:27;97753.06;;;19.54;74.31
9187;BME280;7273;48.902;9.410;2022-08-27T05:53:54;97755.16;;;19.57;74.17
9187;BME280;7273;48.902;9.410;2022-08-27T05:56:22;97749.66;;;19.57;74.26
9187;BME280;7273;48.902;9.410;2022-08-27T05:58:49;97749.66;;;19.57;74.28
9187;BME280;7273;48.902;9.410;2022-08-27T06:01:44;97757.56;;;19.59;74.94
9187;BME280;7273;48.902;9.410;2022-08-27T06:04:11;97751.38;;;19.62;74.30
9187;BME280;7273;48.902;9.410;2022-08-27T06:06:38;97749.75;;;19.61;74.38
9187;BME280;7273;48.902;9.410;2022-08-27T06:09:06;97748.63;;;19.62;74.25
9187;BME280;7273;48.902;9.410;2022-08-27T06:11:31;97762.47;;;19.65;74.37
9187;BME280;7273;48.902;9.410;2022-08-27T06:13:57;97754.59;;;19.64;74.40
9187;BME280;7273;48.902;9.410;2022-08-27T06:16:22;97754.69;;;19.67;74.29
9187;BME280;7273;48.902;9.410;2022-08-27T06:18:48;97758.69;;;19.70;74.38
9187;BME280;7273;48.902;9.410;2022-08-27T06:21:16;97761.09;;;19.71;74.41
9187;BME280;7273;48.902;9.410;2022-08-27T06:23:42;97767.50;;;19.75;74.28
9187;BME280;7273;48.902;9.410;2022-08-27T06:26:11;97760.75;;;19.73;74.33
9187;BME280;7273;48.902;9.410;2022-08-27T06:28:37;97763.97;;;19.75;74.32
9187;BME280;7273;48.902;9.410;2022-08-27T06:31:11;97767.50;;;19.75;74.40
9187;BME280;7273;48.902;9.410;2022-08-27T06:33:38;97773.09;;;19.79;74.25
9187;BME280;7273;48.902;9.410;2022-08-27T06:36:07;97768.88;;;19.81;74.40
9187;BME280;7273;48.902;9.410;2022-08-27T06:38:33;97775.94;;;19.82;74.58
9187;BME280;7273;48.902;9.410;2022-08-27T06:40:59;97769.47;;;19.87;74.37
9187;BME280;7273;48.902;9.410;2022-08-27T06:43:27;97772.88;;;19.84;74.52
9187;BME280;7273;48.902;9.410;2022-08-27T06:45:52;97773.66;;;19.84;74.76
9187;BME280;7273;48.902;9.410;2022-08-27T06:48:18;97782.84;;;19.88;74.58
9187;BME280;7273;48.902;9.410;2022-08-27T06:50:45;97778.59;;;19.91;74.54
9187;BME280;7273;48.902;9.410;2022-08-27T06:53:11;97783.72;;;19.92;74.56
9187;BME280;7273;48.902;9.410;2022-08-27T06:55:45;97777.22;;;19.97;74.94
9187;BME280;7273;48.902;9.410;2022-08-27T06:58:11;97776.84;;;19.98;74.70
9187;BME280;7273;48.902;9.410;2022-08-27T07:00:38;97773.44;;;20.01;74.48
9187;BME280;7273;48.902;9.410;2022-08-27T07:03:04;97775.03;;;20.02;74.47
9187;BME280;7273;48.902;9.410;2022-08-27T07:05:35;97770.69;;;20.01;74.74
9187;BME280;7273;48.902;9.410;2022-08-27T07:08:02;97776.28;;;20.05;74.94
9187;BME280;7273;48.902;9.410;2022-08-27T07:10:28;97779.50;;;20.07;74.52
9187;BME280;7273;48.902;9.410;2022-08-27T07:12:54;97778.00;;;20.10;74.53
9187;BME280;7273;48.902;9.410;2022-08-27T07:15:20;97778.78;;;20.10;74.70
9187;BME280;7273;48.902;9.410;2022-08-27T07:17:45;97771.47;;;20.14;74.57
9187;BME280;7273;48.902;9.410;2022-08-27T07:20:13;97778.25;;;20.17;74.75
9187;BME280;7273;48.902;9.410;2022-08-27T07:22:39;97772.75;;;20.17;74.54
9187;BME280;7273;48.902;9.410;2022-08-27T07:25:06;97779.41;;;20.16;74.76
9187;BME280;7273;48.902;9.410;2022-08-27T07:27:33;97776.41;;;20.21;74.74
9187;BME280;7273;48.902;9.410;2022-08-27T07:29:58;97782.72;;;20.21;74.87
9187;BME280;7273;48.902;9.410;2022-08-27T07:32:24;97784.44;;;20.26;74.85
9187;BME280;7273;48.902;9.410;2022-08-27T07:34:49;97788.75;;;20.27;74.98
9187;BME280;7273;48.902;9.410;2022-08-27T07:37:15;97783.50;;;20.34;74.69
9187;BME280;7273;48.902;9.410;2022-08-27T07:39:41;97794.72;;;20.41;74.77
9187;BME280;7273;48.902;9.410;2022-08-27T07:42:06;97791.84;;;20.37;75.13
9187;BME280;7273;48.902;9.410;2022-08-27T07:44:50;97796.41;;;20.45;74.99
9187;BME280;7273;48.902;9.410;2022-08-27T07:47:16;97792.63;;;20.50;74.58
9187;BME280;7273;48.902;9.410;2022-08-27T07:49:42;97796.97;;;20.51;74.68
9187;BME280;7273;48.902;9.410;2022-08-27T07:52:08;97792.25;;;20.51;75.03
9187;BME280;7273;48.902;9.410;2022-08-27T07:54:33;97793.31;;;20.47;75.18
9187;BME280;7273;48.902;9.410;2022-08-27T07:56:59;97800.03;;;20.49;75.32
9187;BME280;7273;48.902;9.410;2022-08-27T07:59:25;97800.41;;;20.48;75.25
9187;BME280;7273;48.902;9.410;2022-08-27T08:01:52;97802.72;;;20.46;75.26
9187;BME280;7273;48.902;9.410;2022-08-27T08:04:18;97798.09;;;20.50;75.04
9187;BME280;7273;48.902;9.410;2022-08-27T08:06:43;97800.41;;;20.48;75.12
9187;BME280;7273;48.902;9.410;2022-08-27T08:09:09;97803.59;;;20.50;75.35
9187;BME280;7273;48.902;9.410;2022-08-27T08:11:34;97813.34;;;20.47;75.39
9187;BME280;7273;48.902;9.410;2022-08-27T08:14:00;97808.56;;;20.44;75.49
9187;BME280;7273;48.902;9.410;2022-08-27T08:16:26;97816.09;;;20.47;75.34
9187;BME280;7273;48.902;9.410;2022-08-27T08:18:52;97813.69;;;20.46;75.47
9187;BME280;7273;48.902;9.410;2022-08-27T08:21:17;97809.69;;;20.43;75.56
9187;BME280;7273;48.902;9.410;2022-08-27T08:23:43;97819.19;;;20.46;75.39
9187;BME280;7273;48.902;9.410;2022-08-27T08:26:10;97812.44;;;20.43;75.43
9187;BME280;7273;48.902;9.410;2022-08-27T08:28:37;97821.03;;;20.42;75.48
9187;BME280;7273;48.902;9.410;2022-08-27T08:31:03;97816.56;;;20.37;75.59
9187;BME280;7273;48.902;9.410;2022-08-27T08:33:29;97819.22;;;20.34;75.54
9187;BME280;7273;48.902;9.410;2022-08-27T08:36:04;97823.53;;;20.35;75.73
9187;BME280;7273;48.902;9.410;2022-08-27T08:38:30;97828.84;;;20.28;75.69
9187;BME280;7273;48.902;9.410;2022-08-27T08:40:56;97827.09;;;20.23;75.58
9187;BME280;7273;48.902;9.410;2022-08-27T08:43:26;97830.88;;;20.19;75.87
9187;BME280;7273;48.902;9.410;2022-08-27T08:45:55;97838.09;;;20.23;75.70
9187;BME280;7273;48.902;9.410;2022-08-27T08:48:24;97825.50;;;20.22;75.83
9187;BME280;7273;48.902;9.410;2022-08-27T08:51:04;97832.59;;;20.23;76.03
9187;BME280;7273;48.902;9.410;2022-08-27T08:53:54;97838.44;;;20.22;77.02
9187;BME280;7273;48.902;9.410;2022-08-27T08:56:41;97843.50;;;20.20;76.21
9187;BME280;7273;48.902;9.410;2022-08-27T08:59:40;97840.06;;;20.23;76.86
9187;BME280;7273;48.902;9.410;2022-08-27T09:02:09;97838.78;;;20.20;76.00
9187;BME280;7273;48.902;9.410;2022-08-27T09:04:36;97838.44;;;20.22;75.87
9187;BME280;7273;48.902;9.410;2022-08-27T09:07:21;97837.19;;;20.19;76.76
9187;BME280;7273;48.902;9.410;2022-08-27T09:10:02;97837.06;;;20.16;76.30
9187;BME280;7273;48.902;9.410;2022-08-27T09:12:31;97840.97;;;20.15;76.39
9187;BME280;7273;48.902;9.410;2022-08-27T09:15:06;97839.00;;;20.15;76.59
9187;BME280;7273;48.902;9.410;2022-08-27T09:17:32;97837.72;;;20.13;76.38
9187;BME280;7273;48.902;9.410;2022-08-27T09:19:59;97837.88;;;20.16;76.22
9187;BME280;7273;48.902;9.410;2022-08-27T09:27:47;97835.25;;;20.20;76.66
9187;BME280;7273;48.902;9.410;2022-08-27T09:30:20;97832.50;;;20.20;76.75
9187;BME280;7273;48.902;9.410;2022-08-27T09:32:56;97834.66;;;20.14;77.30
9187;BME280;7273;48.902;9.410;2022-08-27T09:35:24;97833.72;;;20.10;77.20
9187;BME280;7273;48.902;9.410;2022-08-27T09:37:52;97837.63;;;20.09;77.04
9187;BME280;7273;48.902;9.410;2022-08-27T09:42:52;97833.53;;;20.15;76.71
9187;BME280;7273;48.902;9.410;2022-08-27T09:45:27;97834.31;;;20.16;76.93
9187;BME280;7273;48.902;9.410;2022-08-27T09:48:12;97838.22;;;20.15;77.27
9187;BME280;7273;48.902;9.410;2022-08-27T09:50:45;97827.56;;;20.13;77.22
9187;BME280;7273;48.902;9.410;2022-08-27T09:53:27;97838.56;;;20.25;77.40
9187;BME280;7273;48.902;9.410;2022-08-27T09:55:57;97838.19;;;20.27;77.19
9187;BME280;7273;48.902;9.410;2022-08-27T09:58:28;97829.50;;;20.37;76.84
9187;BME280;7273;48.902;9.410;2022-08-27T10:01:03;97830.84;;;20.43;77.03
9187;BME280;7273;48.902;9.410;2022-08-27T10:03:29;97825.94;;;20.48;76.93
9187;BME280;7273;48.902;9.410;2022-08-27T10:05:55;97827.97;;;20.51;76.65
9187;BME280;7273;48.902;9.410;2022-08-27T10:08:47;97828.78;;;20.64;77.91
9187;BME280;7273;48.902;9.410;2022-08-27T10:11:31;97823.72;;;20.66;77.69
9187;BME280;7273;48.902;9.410;2022-08-27T10:14:22;97813.03;;;20.76;77.63
9187;BME280;7273;48.902;9.410;2022-08-27T10:16:59;97825.28;;;20.79;76.70
9187;BME280;7273;48.902;9.410;2022-08-27T10:25:27;97826.94;;;20.95;77.19
9187;BME280;7273;48.902;9.410;2022-08-27T10:30:58;97825.94;;;21.00;76.53
9187;BME280;7273;48.902;9.410;2022-08-27T10:33:38;97831.63;;;21.07;76.44
9187;BME280;7273;48.902;9.410;2022-08-27T10:45:19;97833.88;;;21.17;76.63
9187;BME280;7273;48.902;9.410;2022-08-27T10:50:49;97848.97;;;21.23;76.84
9187;BME280;7273;48.902;9.410;2022-08-27T10:53:29;97840.28;;;21.21;76.78
9187;BME280;7273;48.902;9.410;2022-08-27T10:56:28;97846.47;;;21.18;76.93
9187;BME280;7273;48.902;9.410;2022-08-27T11:01:36;97843.19;;;21.12;77.06
9187;BME280;7273;48.902;9.410;2022-08-27T11:04:13;97844.00;;;21.13;77.19
9187;BME280;7273;48.902;9.410;2022-08-27T11:06:45;97843.09;;;21.09;77.14
9187;BME280;7273;48.902;9.410;2022-08-27T11:09:21;97846.28;;;21.11;76.95
9187;BME280;7273;48.902;9.410;2022-08-27T11:11:56;97846.53;;;21.06;77.31
9187;BME280;7273;48.902;9.410;2022-08-27T11:16:59;97841.28;;;21.01;77.49
9187;BME280;7273;48.902;9.410;2022-08-27T11:19:54;97850.00;;;21.03;77.84
9187;BME280;7273;48.902;9.410;2022-08-27T11:22:38;97844.75;;;20.98;78.17
9187;BME280;7273;48.902;9.410;2022-08-27T11:27:48;97844.50;;;20.91;77.86
9187;BME280;7273;48.902;9.410;2022-08-27T11:30:22;97848.84;;;20.92;77.72
9187;BME280;7273;48.902;9.410;2022-08-27T11:33:13;97843.13;;;20.97;78.26
9187;BME280;7273;48.902;9.410;2022-08-27T11:44:15;97838.44;;;20.97;77.49
9187;BME280;7273;48.902;9.410;2022-08-27T11:46:50;97846.44;;;21.02;77.13
9187;BME280;7273;48.902;9.410;2022-08-27T11:49:27;97839.25;;;20.98;77.68
9187;BME280;7273;48.902;9.410;2022-08-27T11:52:04;97847.34;;;20.94;77.50
9187;BME280;7273;48.902;9.410;2022-08-27T11:54:48;97847.94;;;21.00;77.10
9187;BME280;7273;48.902;9.410;2022-08-27T11:57:34;97841.75;;;21.03;77.54
9187;BME280;7273;48.902;9.410;2022-08-27T12:00:30;97849.19;;;21.02;77.82
9187;BME280;7273;48.902;9.410;2022-08-27T12:03:01;97838.44;;;20.97;76.83
9187;BME280;7273;48.902;9.410;2022-08-27T12:14:07;97826.84;;;21.04;77.95
9187;BME280;7273;48.902;9.410;2022-08-27T12:16:51;97836.00;;;21.08;77.35
9187;BME280;7273;48.902;9.410;2022-08-27T12:24:56;97839.19;;;21.10;76.44
9187;BME280;7273;48.902;9.410;2022-08-27T12:30:28;97838.50;;;21.13;76.06
9187;BME280;7273;48.902;9.410;2022-08-27T12:32:52;97836.00;;;21.08;75.92
9187;BME280;7273;48.902;9.410;2022-08-27T12:37:55;97839.19;;;21.10;75.94
9187;BME280;7273;48.902;9.410;2022-08-27T12:40:38;97836.06;;;21.11;76.47
9187;BME280;7273;48.902;9.410;2022-08-27T12:43:10;97835.75;;;21.13;76.14
9187;BME280;7273;48.902;9.410;2022-08-27T12:45:53;97843.28;;;21.16;76.68
9187;BME280;7273;48.902;9.410;2022-08-27T12:48:24;97839.03;;;21.18;76.45
9187;BME280;7273;48.902;9.410;2022-08-27T12:50:56;97830.44;;;21.20;76.85
9187;BME280;7273;48.902;9.410;2022-08-27T12:53:40;97825.75;;;21.36;76.48
9187;BME280;7273;48.902;9.410;2022-08-27T12:59:19;97832.19;;;21.56;76.33
9187;BME280;7273;48.902;9.410;2022-08-27T13:01:47;97830.53;;;21.67;75.97
9187;BME280;7273;48.902;9.410;2022-08-27T13:04:25;97819.31;;;21.60;76.01
9187;BME280;7273;48.902;9.410;2022-08-27T13:06:51;97827.78;;;21.67;75.31
9187;BME280;7273;48.902;9.410;2022-08-27T13:09:28;97826.06;;;21.62;75.41
9187;BME280;7273;48.902;9.410;2022-08-27T13:11:54;97829.31;;;21.37;75.66
9187;BME280;7273;48.902;9.410;2022-08-27T13:14:23;97827.63;;;21.32;75.34
9187;BME280;7273;48.902;9.410;2022-08-27T13:19:24;97819.56;;;21.39;74.96
9187;BME280;7273;48.902;9.410;2022-08-27T13:21:50;97814.50;;;21.41;74.60
9187;BME280;7273;48.902;9.410;2022-08-27T13:24:46;97818.75;;;21.39;75.65
9187;BME280;7273;48.902;9.410;2022-08-27T13:27:13;97824.16;;;21.35;74.52
9187;BME280;7273;48.902;9.410;2022-08-27T13:29:39;97814.69;;;21.33;74.75
9187;BME280;7273;48.902;9.410;2022-08-27T13:32:05;97822.75;;;21.41;74.80
9187;BME280;7273;48.902;9.410;2022-08-27T13:34:35;97821.16;;;21.40;74.58
9187;BME280;7273;48.902;9.410;2022-08-27T13:37:17;97822.06;;;21.44;74.54
9187;BME280;7273;48.902;9.410;2022-08-27T13:39:45;97813.53;;;21.49;74.38
9187;BME280;7273;48.902;9.410;2022-08-27T13:42:10;97814.94;;;21.43;74.68
9187;BME280;7273;48.902;9.410;2022-08-27T13:44:38;97816.00;;;21.39;74.87
9187;BME280;7273;48.902;9.410;2022-08-27T13:47:15;97817.19;;;21.38;74.69
9187;BME280;7273;48.902;9.410;2022-08-27T13:49:41;97819.81;;;21.34;74.49
9187;BME280;7273;48.902;9.410;2022-08-27T13:52:26;97817.31;;;21.29;75.19
9187;BME280;7273;48.902;9.410;2022-08-27T13:55:19;97814.88;;;21.12;75.50
9187;BME280;7273;48.902;9.410;2022-08-27T13:57:48;97814.59;;;21.01;74.08
9187;BME280;7273;48.902;9.410;2022-08-27T14:00:21;97817.25;;;20.86;74.48
9187;BME280;7273;48.902;9.410;2022-08-27T14:02:48;97810.16;;;20.85;74.71
9187;BME280;7273;48.902;9.410;2022-08-27T14:08:13;97805.38;;;20.82;76.46
9187;BME280;7273;48.902;9.410;2022-08-27T14:11:03;97800.19;;;20.80;76.42
9187;BME280;7273;48.902;9.410;2022-08-27T14:13:40;97803.84;;;20.84;75.89
9187;BME280;7273;48.902;9.410;2022-08-27T14:16:28;97807.81;;;20.99;76.42
9187;BME280;7273;48.902;9.410;2022-08-27T14:21:32;97808.16;;;21.25;75.40
9187;BME280;7273;48.902;9.410;2022-08-27T14:23:59;97811.13;;;21.32;75.95
9187;BME280;7273;48.902;9.410;2022-08-27T14:26:25;97804.75;;;21.44;75.85
9187;BME280;7273;48.902;9.410;2022-08-27T14:28:51;97799.34;;;21.47;75.44
9187;BME280;7273;48.902;9.410;2022-08-27T14:31:17;97799.44;;;21.51;75.38
9187;BME280;7273;48.902;9.410;2022-08-27T14:33:43;97799.34;;;21.47;75.22
9187;BME280;7273;48.902;9.410;2022-08-27T14:36:10;97793.22;;;21.54;75.43
9187;BME280;7273;48.902;9.410;2022-08-27T14:38:37;97788.84;;;21.53;75.29
9187;BME280;7273;48.902;9.410;2022-08-27T14:41:03;97802.34;;;21.58;74.99
9187;BME280;7273;48.902;9.410;2022-08-27T14:43:29;97794.72;;;21.51;75.23
9187;BME280;7273;48.902;9.410;2022-08-27T14:45:54;97800.22;;;21.51;74.96
9187;BME280;7273;48.902;9.410;2022-08-27T14:48:24;97796.84;;;21.58;75.17
9187;BME280;7273;48.902;9.410;2022-08-27T14:50:52;97793.47;;;21.49;75.91
9187;BME280;7273;48.902;9.410;2022-08-27T14:53:17;97806.97;;;21.54;75.72
9187;BME280;7273;48.902;9.410;2022-08-27T14:55:45;97794.72;;;21.51;75.62
9187;BME280;7273;48.902;9.410;2022-08-27T14:58:10;97800.47;;;21.46;76.21
9187;BME280;7273;48.902;9.410;2022-08-27T15:00:38;97794.72;;;21.51;76.28
9187;BME280;7273;48.902;9.410;2022-08-27T15:03:03;97799.44;;;21.51;76.53
9187;BME280;7273;48.902;9.410;2022-08-27T15:05:28;97801.38;;;21.50;76.57
9187;BME280;7273;48.902;9.410;2022-08-27T15:07:54;97800.66;;;21.53;76.61
9187;BME280;7273;48.902;9.410;2022-08-27T15:10:22;97808.22;;;21.56;76.62
9187;BME280;7273;48.902;9.410;2022-08-27T15:12:47;97812.66;;;21.45;77.01
9187;BME280;7273;48.902;9.410;2022-08-27T15:15:13;97804.84;;;21.47;76.81
9187;BME280;7273;48.902;9.410;2022-08-27T15:17:39;97798.78;;;21.42;77.03
9187;BME280;7273;48.902;9.410;2022-08-27T15:20:08;97799.97;;;21.41;77.23
9187;BME280;7273;48.902;9.410;2022-08-27T15:22:36;97794.72;;;21.51;76.71
9187;BME280;7273;48.902;9.410;2022-08-27T15:25:03;97794.34;;;21.53;77.14
9187;BME280;7273;48.902;9.410;2022-08-27T15:27:29;97795.63;;;21.55;77.19
9187;BME280;7273;48.902;9.410;2022-08-27T15:29:57;97794.19;;;21.61;76.95
9187;BME280;7273;48.902;9.410;2022-08-27T15:32:31;97801.22;;;21.59;77.12
9187;BME280;7273;48.902;9.410;2022-08-27T15:34:59;97796.59;;;21.63;76.48
9187;BME280;7273;48.902;9.410;2022-08-27T15:37:26;97794.38;;;21.68;76.25
9187;BME280;7273;48.902;9.410;2022-08-27T15:39:51;97801.47;;;21.69;76.80
9187;BME280;7273;48.902;9.410;2022-08-27T15:42:17;97798.09;;;21.76;76.89
9187;BME280;7273;48.902;9.410;2022-08-27T15:44:53;97787.84;;;21.88;77.17
9187;BME280;7273;48.902;9.410;2022-08-27T15:47:20;97783.66;;;21.94;77.16
9187;BME280;7273;48.902;9.410;2022-08-27T15:49:46;97787.09;;;22.07;76.93
9187;BME280;7273;48.902;9.410;2022-08-27T15:52:14;97782.28;;;22.19;76.23
9187;BME280;7273;48.902;9.410;2022-08-27T15:54:43;97785.63;;;22.28;76.12
9187;BME280;7273;48.902;9.410;2022-08-27T15:57:10;97780.75;;;22.22;76.38
9187;BME280;7273;48.902;9.410;2022-08-27T15:59:35;97781.78;;;22.33;76.17
9187;BME280;7273;48.902;9.410;2022-08-27T16:02:02;97783.41;;;22.34;76.05
9187;BME280;7273;48.902;9.410;2022-08-27T16:04:28;97791.44;;;22.42;75.72
9187;BME280;7273;48.902;9.410;2022-08-27T16:06:54;97787.09;;;22.41;75.66
9187;BME280;7273;48.902;9.410;2022-08-27T16:09:20;97789.94;;;22.45;75.48
9187;BME280;7273;48.902;9.410;2022-08-27T16:11:45;97796.28;;;22.45;75.75
9187;BME280;7273;48.902;9.410;2022-08-27T16:14:11;97788.50;;;22.51;75.91
9187;BME280;7273;48.902;9.410;2022-08-27T16:16:38;97789.78;;;22.53;75.54
9187;BME280;7273;48.902;9.410;2022-08-27T16:19:05;97795.28;;;22.53;75.53
9187;BME280;7273;48.902;9.410;2022-08-27T16:21:31;97791.88;;;22.60;75.39
9187;BME280;7273;48.902;9.410;2022-08-27T16:23:59;97794.78;;;22.67;75.25
9187;BME280;7273;48.902;9.410;2022-08-27T16:26:25;97798.06;;;22.73;75.09
9187;BME280;7273;48.902;9.410;2022-08-27T16:28:51;97795.75;;;22.75;74.90
9187;BME280;7273;48.902;9.410;2022-08-27T16:31:16;97797.91;;;22.66;75.09
9187;BME280;7273;48.902;9.410;2022-08-27T16:33:42;97794.66;;;22.60;75.06
9187;BME280;7273;48.902;9.410;2022-08-27T16:36:08;97793.75;;;22.56;75.01
9187;BME280;7273;48.902;9.410;2022-08-27T16:38:33;97793.56;;;22.49;75.22
9187;BME280;7273;48.902;9.410;2022-08-27T16:41:00;97793.31;;;22.54;75.10
9187;BME280;7273;48.902;9.410;2022-08-27T16:43:26;97793.31;;;22.54;75.14
9187;BME280;7273;48.902;9.410;2022-08-27T16:45:54;97790.91;;;22.52;74.95
9187;BME280;7273;48.902;9.410;2022-08-27T16:48:21;97800.63;;;22.46;75.21
9187;BME280;7273;48.902;9.410;2022-08-27T16:51:08;97794.06;;;22.35;75.55
9187;BME280;7273;48.902;9.410;2022-08-27T16:53:39;97794.63;;;22.25;75.67
9187;BME280;7273;48.902;9.410;2022-08-27T16:56:05;97796.47;;;22.21;75.65
9187;BME280;7273;48.902;9.410;2022-08-27T16:58:32;97797.91;;;22.15;75.63
9187;BME280;7273;48.902;9.410;2022-08-27T17:01:00;97801.41;;;22.12;75.63
9187;BME280;7273;48.902;9.410;2022-08-27T17:03:27;97808.41;;;22.10;76.09
9187;BME280;7273;48.902;9.410;2022-08-27T17:05:55;97809.84;;;22.04;76.14
9187;BME280;7273;48.902;9.410;2022-08-27T17:08:22;97803.44;;;22.00;76.42
9187;BME280;7273;48.902;9.410;2022-08-27T17:10:50;97798.22;;;21.95;76.68
9187;BME280;7273;48.902;9.410;2022-08-27T17:13:19;97801.94;;;21.87;76.88
9187;BME280;7273;48.902;9.410;2022-08-27T17:15:46;97804.53;;;21.80;76.83
9187;BME280;7273;48.902;9.410;2022-08-27T17:18:18;97804.78;;;21.75;76.87
9187;BME280;7273;48.902;9.410;2022-08-27T17:20:46;97811.72;;;21.69;77.13
9187;BME280;7273;48.902;9.410;2022-08-27T17:23:19;97815.50;;;21.64;77.14
9187;BME280;7273;48.902;9.410;2022-08-27T17:25:45;97818.16;;;21.61;77.05
9187;BME280;7273;48.902;9.410;2022-08-27T17:28:11;97814.88;;;21.55;77.21
9187;BME280;7273;48.902;9.410;2022-08-27T17:30:36;97815.50;;;21.49;77.38
9187;BME280;7273;48.902;9.410;2022-08-27T17:33:02;97814.22;;;21.46;77.26
9187;BME280;7273;48.902;9.410;2022-08-27T17:35:27;97812.44;;;21.38;77.28
9187;BME280;7273;48.902;9.410;2022-08-27T17:37:52;97822.56;;;21.34;77.06